Time;durP1;ratioP1;P1;durP2;ratioP2;P2;SDS_P1;SDS_P2;PMS_P1;PMS_P2;Temp;Humidity;BMP_temperature;BMP_pressure;BME280_temperature;BME280_humidity;BME280_pressure;Samples;Min_cycle;Max_cycle;Signal;HPM_P1;HPM_P2
2022/12/12 00:02:20;;;;;;;6.20;2.80;;;;;;;;;;4919110;29;20095;-83
2022/12/12 00:04:46;;;;;;;5.30;2.80;;;;;;;;;;4918996;29;20036;-84
2022/12/12 00:07:11;;;;;;;5.68;2.83;;;;;;;;;;4919679;29;20067;-83
2022/12/12 00:09:37;;;;;;;6.80;2.90;;;;;;;;;;4919326;29;20125;-83
2022/12/12 00:12:02;;;;;;;5.78;2.75;;;;;;;;;;4902029;29;20406;-83
2022/12/12 00:14:28;;;;;;;5.30;2.60;;;;;;;;;;4901307;29;20036;-83
2022/12/12 00:16:53;;;;;;;8.02;2.78;;;;;;;;;;4917473;29;20059;-84
2022/12/12 00:19:19;;;;;;;5.80;2.47;;;;;;;;;;4919108;29;20454;-85
2022/12/12 00:21:45;;;;;;;6.30;2.83;;;;;;;;;;4918726;29;20040;-83
2022/12/12 00:24:11;;;;;;;6.93;2.70;;;;;;;;;;4918532;29;20047;-82
2022/12/12 00:26:36;;;;;;;5.03;2.72;;;;;;;;;;4902179;29;20094;-82
2022/12/12 00:29:04;;;;;;;5.07;2.70;;;;;;;;;;4904058;29;20032;-82
2022/12/12 00:31:29;;;;;;;5.63;2.30;;;;;;;;;;4904668;29;20047;-84
2022/12/12 00:33:55;;;;;;;5.05;2.60;;;;;;;;;;4903761;29;20043;-78
2022/12/12 00:36:24;;;;;;;4.35;2.63;;;;;;;;;;4903437;29;20091;-82
2022/12/12 00:38:51;;;;;;;4.90;2.42;;;;;;;;;;4902458;29;20036;-83
2022/12/12 00:41:16;;;;;;;4.80;2.50;;;;;;;;;;4899916;29;20036;-82
2022/12/12 00:43:42;;;;;;;5.60;2.40;;;;;;;;;;4920134;29;20028;-82
2022/12/12 00:46:08;;;;;;;5.20;2.30;;;;;;;;;;4919777;29;20048;-83
2022/12/12 00:48:33;;;;;;;4.63;2.45;;;;;;;;;;4919977;29;20091;-83
2022/12/12 00:51:09;;;;;;;4.05;2.42;;;;;;;;;;4920085;29;20047;-81
2022/12/12 00:53:35;;;;;;;5.45;2.30;;;;;;;;;;4920239;29;20062;-81
2022/12/12 00:56:01;;;;;;;5.40;2.30;;;;;;;;;;4903075;29;20067;-83
2022/12/12 00:58:27;;;;;;;3.42;2.00;;;;;;;;;;4922961;29;20035;-82
2022/12/12 01:00:53;;;;;;;4.53;2.40;;;;;;;;;;4905542;29;20020;-83
2022/12/12 01:03:19;;;;;;;5.60;2.50;;;;;;;;;;4903632;29;20082;-82
2022/12/12 01:05:45;;;;;;;4.65;2.60;;;;;;;;;;4901509;29;20060;-83
2022/12/12 01:08:10;;;;;;;6.65;2.45;;;;;;;;;;4918928;29;20032;-83
2022/12/12 01:10:36;;;;;;;5.13;2.60;;;;;;;;;;4918887;29;20046;-83
2022/12/12 01:13:03;;;;;;;4.28;2.42;;;;;;;;;;4902089;29;20059;-84
2022/12/12 01:15:29;;;;;;;3.95;2.20;;;;;;;;;;4918470;29;20162;-84
2022/12/12 01:17:54;;;;;;;4.03;2.10;;;;;;;;;;4901679;29;20036;-83
2022/12/12 01:20:25;;;;;;;4.60;2.53;;;;;;;;;;4917899;29;20050;-83
2022/12/12 01:22:51;;;;;;;4.60;2.20;;;;;;;;;;4918725;29;20382;-83
2022/12/12 01:25:17;;;;;;;3.55;2.17;;;;;;;;;;4918869;29;20068;-84
2022/12/12 01:27:44;;;;;;;4.28;2.50;;;;;;;;;;4902036;29;20047;-82
2022/12/12 01:30:17;;;;;;;4.55;2.60;;;;;;;;;;4902665;29;20056;-81
2022/12/12 01:32:43;;;;;;;4.40;2.58;;;;;;;;;;4918701;29;20044;-84
2022/12/12 01:35:10;;;;;;;4.72;2.40;;;;;;;;;;4901355;29;20051;-83
2022/12/12 01:37:37;;;;;;;5.65;2.78;;;;;;;;;;4901148;29;20032;-83
2022/12/12 01:40:05;;;;;;;3.88;2.58;;;;;;;;;;4918204;29;20036;-84
2022/12/12 01:42:31;;;;;;;4.55;2.72;;;;;;;;;;4917476;29;20040;-83
2022/12/12 01:44:56;;;;;;;5.63;2.70;;;;;;;;;;4917821;29;20044;-82
2022/12/12 01:47:23;;;;;;;6.80;2.63;;;;;;;;;;4900567;29;20083;-84
2022/12/12 01:49:54;;;;;;;5.68;2.78;;;;;;;;;;4900826;29;20489;-84
2022/12/12 01:52:27;;;;;;;4.88;2.58;;;;;;;;;;4917697;29;20165;-83
2022/12/12 01:54:55;;;;;;;;;;;;;;;;;;4917824;29;20474;-80
2022/12/12 01:57:28;;;;;;;6.07;2.60;;;;;;;;;;4896782;29;19967;-82
2022/12/12 01:59:55;;;;;;;5.53;2.53;;;;;;;;;;4882202;29;20072;-82
2022/12/12 02:02:20;;;;;;;4.78;2.72;;;;;;;;;;4901752;29;20039;-84
2022/12/12 02:04:46;;;;;;;6.30;2.80;;;;;;;;;;4905512;29;20036;-84
2022/12/12 02:07:11;;;;;;;4.80;2.72;;;;;;;;;;4899500;29;20474;-83
2022/12/12 02:09:37;;;;;;;5.13;2.70;;;;;;;;;;4899053;29;20059;-81
2022/12/12 02:12:04;;;;;;;4.50;2.47;;;;;;;;;;4899098;29;20059;-82
2022/12/12 02:14:38;;;;;;;5.57;2.38;;;;;;;;;;4866089;29;20175;-82
2022/12/12 02:17:33;;;;;;;4.10;2.40;;;;;;;;;;4900443;29;20073;-84
2022/12/12 02:20:23;;;;;;;6.93;2.58;;;;;;;;;;4902263;29;20040;-83
2022/12/12 02:23:17;;;;;;;4.25;2.30;;;;;;;;;;4942028;23;20048;-81
2022/12/12 02:25:58;;;;;;;4.45;2.50;;;;;;;;;;4909274;29;20031;-81
2022/12/12 02:29:18;;;;;;;4.90;2.80;;;;;;;;;;4927178;29;20032;-82
2022/12/12 02:31:51;;;;;;;4.03;2.40;;;;;;;;;;4831826;29;20673;-81
2022/12/12 02:34:31;;;;;;;;;;;;;;;;;;4912293;29;20078;-81
2022/12/12 02:37:21;;;;;;;3.90;2.25;;;;;;;;;;4928449;29;19958;-81
2022/12/12 02:40:20;;;;;;;5.45;2.35;;;;;;;;;;4929043;29;20036;-81
2022/12/12 02:42:59;;;;;;;4.53;2.13;;;;;;;;;;4901457;29;20052;-81
2022/12/12 02:45:44;;;;;;;6.43;2.65;;;;;;;;;;4927208;29;20046;-81
2022/12/12 02:48:18;;;;;;;4.18;2.05;;;;;;;;;;4894292;29;20110;-82
2022/12/12 02:50:47;;;;;;;4.28;2.42;;;;;;;;;;4910585;29;20040;-82
2022/12/12 02:53:21;;;;;;;4.65;2.50;;;;;;;;;;4924854;29;20036;-82
2022/12/12 02:55:48;;;;;;;5.20;2.55;;;;;;;;;;4924470;29;20489;-82
2022/12/12 02:58:14;;;;;;;5.72;2.88;;;;;;;;;;4924901;29;20051;-82
2022/12/12 03:00:55;;;;;;;5.25;2.53;;;;;;;;;;4925112;29;20040;-81
2022/12/12 03:09:26;;;;;;;5.57;2.80;;;;;;;;;;4924978;29;20084;-81
2022/12/12 03:12:09;;;;;;;7.95;3.20;;;;;;;;;;4924902;29;20040;-81
2022/12/12 03:14:48;;;;;;;6.22;3.10;;;;;;;;;;4891766;29;20139;-81
2022/12/12 03:17:40;;;;;;;5.47;3.25;;;;;;;;;;4925176;29;20047;-82
2022/12/12 03:20:12;;;;;;;5.18;2.92;;;;;;;;;;4903409;29;20056;-82
2022/12/12 03:23:03;;;;;;;5.88;3.22;;;;;;;;;;4907139;29;20040;-82
2022/12/12 03:26:11;;;;;;;5.50;2.95;;;;;;;;;;4924440;29;20055;-82
2022/12/12 03:28:45;;;;;;;6.75;3.03;;;;;;;;;;4917120;29;20051;-82
2022/12/12 03:31:11;;;;;;;6.07;3.03;;;;;;;;;;4923800;29;20405;-82
2022/12/12 03:33:37;;;;;;;5.50;2.97;;;;;;;;;;4924836;29;20287;-82
2022/12/12 03:36:24;;;;;;;6.03;3.08;;;;;;;;;;4924123;29;20040;-82
2022/12/12 03:38:58;;;;;;;7.13;3.58;;;;;;;;;;4925263;29;20091;-81
2022/12/12 03:41:37;;;;;;;7.80;3.55;;;;;;;;;;4926714;29;20055;-82
2022/12/12 03:44:24;;;;;;;6.50;3.85;;;;;;;;;;4907490;29;20047;-82
2022/12/12 03:46:58;;;;;;;6.20;3.28;;;;;;;;;;4927655;29;20040;-82
2022/12/12 03:49:32;;;;;;;7.32;3.55;;;;;;;;;;4927071;29;20047;-82
2022/12/12 03:52:07;;;;;;;7.35;3.47;;;;;;;;;;4906935;29;20135;-81
2022/12/12 03:55:01;;;;;;;8.23;3.60;;;;;;;;;;4907126;29;20036;-82
2022/12/12 03:57:36;;;;;;;6.18;3.65;;;;;;;;;;4870571;29;20052;-82
2022/12/12 04:00:06;;;;;;;6.13;3.65;;;;;;;;;;4924325;29;20039;-83
2022/12/12 04:03:10;;;;;;;5.38;3.13;;;;;;;;;;4924778;29;20528;-83
2022/12/12 04:06:25;;;;;;;6.47;3.63;;;;;;;;;;4893688;29;20059;-83
2022/12/12 04:08:27;;;;;;;7.50;3.75;;;;;;;;;;4909573;29;20425;-83
2022/12/12 04:13:53;;;;;;;6.05;3.38;;;;;;;;;;4926692;29;20062;-82
2022/12/12 04:16:34;;;;;;;6.80;3.75;;;;;;;;;;4926312;29;20040;-83
2022/12/12 04:23:14;;;;;;;6.63;3.33;;;;;;;;;;4926692;29;20032;-83
2022/12/12 04:25:15;;;;;;;6.15;3.58;;;;;;;;;;4926256;29;20072;-83
2022/12/12 04:27:45;;;;;;;7.88;3.80;;;;;;;;;;4926509;29;20092;-82
2022/12/12 04:30:13;;;;;;;6.40;3.70;;;;;;;;;;4926099;29;20058;-83
2022/12/12 04:32:57;;;;;;;7.25;3.35;;;;;;;;;;4925318;29;20520;-83
2022/12/12 04:35:44;;;;;;;7.45;3.95;;;;;;;;;;4908345;29;20529;-82
2022/12/12 04:38:15;;;;;;;8.07;4.05;;;;;;;;;;4908931;29;20649;-82
2022/12/12 04:40:49;;;;;;;6.72;3.63;;;;;;;;;;4907712;29;20051;-82
2022/12/12 04:43:46;;;;;;;7.82;3.55;;;;;;;;;;4926120;29;20104;-83
2022/12/12 04:46:21;;;;;;;7.22;3.72;;;;;;;;;;4914263;29;20119;-82
2022/12/12 04:48:52;;;;;;;6.47;3.45;;;;;;;;;;4925741;29;20028;-82
2022/12/12 04:51:25;;;;;;;7.75;3.80;;;;;;;;;;4908300;29;20080;-82
2022/12/12 04:54:01;;;;;;;6.65;3.67;;;;;;;;;;4925712;29;20040;-80
2022/12/12 04:56:29;;;;;;;5.68;3.33;;;;;;;;;;4906808;29;20036;-82
2022/12/12 04:58:56;;;;;;;6.68;3.55;;;;;;;;;;4906669;29;20058;-82
2022/12/12 05:01:29;;;;;;;7.15;3.50;;;;;;;;;;4923823;29;20079;-82
2022/12/12 05:03:59;;;;;;;8.15;3.80;;;;;;;;;;4923127;29;20102;-81
2022/12/12 05:06:34;;;;;;;6.30;3.58;;;;;;;;;;4908845;29;20108;-83
2022/12/12 05:09:01;;;;;;;6.40;3.67;;;;;;;;;;4925832;29;20051;-81
2022/12/12 05:11:28;;;;;;;9.13;3.88;;;;;;;;;;4907927;29;20044;-81
2022/12/12 05:13:53;;;;;;;6.63;3.40;;;;;;;;;;4925158;29;20064;-83
2022/12/12 05:16:31;;;;;;;8.35;4.43;;;;;;;;;;4924808;29;20405;-82
2022/12/12 05:19:00;;;;;;;6.22;3.70;;;;;;;;;;4925640;29;20040;-83
2022/12/12 05:21:26;;;;;;;6.50;3.28;;;;;;;;;;4925693;29;20044;-84
2022/12/12 05:23:52;;;;;;;8.10;4.43;;;;;;;;;;4925764;29;20071;-83
2022/12/12 05:26:26;;;;;;;10.85;4.97;;;;;;;;;;4925027;29;20036;-83
2022/12/12 05:28:52;;;;;;;7.78;4.03;;;;;;;;;;4925698;29;20036;-83
2022/12/12 05:31:18;;;;;;;7.53;4.10;;;;;;;;;;4925003;29;20046;-83
2022/12/12 05:33:43;;;;;;;7.25;3.70;;;;;;;;;;4908440;29;20055;-82
2022/12/12 05:36:09;;;;;;;7.55;4.45;;;;;;;;;;4907774;29;20039;-83
2022/12/12 05:38:35;;;;;;;7.43;4.10;;;;;;;;;;4925439;29;20110;-83
2022/12/12 05:41:01;;;;;;;7.38;4.13;;;;;;;;;;4925184;29;20039;-82
2022/12/12 05:43:26;;;;;;;6.63;4.05;;;;;;;;;;4907728;29;20043;-83
2022/12/12 05:45:52;;;;;;;6.95;4.35;;;;;;;;;;4891873;29;20063;-81
2022/12/12 05:48:17;;;;;;;7.15;4.20;;;;;;;;;;4925543;29;20043;-83
2022/12/12 05:50:43;;;;;;;9.40;4.10;;;;;;;;;;4910246;29;20047;-83
2022/12/12 05:53:09;;;;;;;9.90;5.13;;;;;;;;;;4927781;29;20039;-83
2022/12/12 05:55:35;;;;;;;8.43;4.30;;;;;;;;;;4930059;29;20046;-84
2022/12/12 05:58:00;;;;;;;7.70;4.47;;;;;;;;;;4912013;29;20032;-82
2022/12/12 06:00:26;;;;;;;8.10;4.70;;;;;;;;;;4929558;29;20032;-81
2022/12/12 06:02:51;;;;;;;10.45;5.10;;;;;;;;;;4929443;29;20123;-83
2022/12/12 06:05:17;;;;;;;12.45;5.55;;;;;;;;;;4911840;29;20458;-84
2022/12/12 06:07:42;;;;;;;10.32;4.95;;;;;;;;;;4929625;29;20039;-82
2022/12/12 06:10:08;;;;;;;10.73;4.80;;;;;;;;;;4943983;29;20039;-81
2022/12/12 06:12:33;;;;;;;8.80;5.25;;;;;;;;;;4930707;29;20063;-83
2022/12/12 06:14:59;;;;;;;19.08;7.65;;;;;;;;;;4945650;29;20078;-83
2022/12/12 06:17:24;;;;;;;22.95;9.18;;;;;;;;;;4945969;29;20512;-83
2022/12/12 06:19:51;;;;;;;9.43;5.63;;;;;;;;;;4947549;29;20493;-83
2022/12/12 06:22:16;;;;;;;9.65;5.32;;;;;;;;;;4946260;29;20102;-82
2022/12/12 06:24:42;;;;;;;10.13;4.75;;;;;;;;;;4930657;29;20032;-83
2022/12/12 06:27:07;;;;;;;8.95;4.63;;;;;;;;;;4946226;29;20390;-83
2022/12/12 06:29:33;;;;;;;9.63;4.85;;;;;;;;;;4945653;29;20040;-82
2022/12/12 06:31:58;;;;;;;9.90;5.18;;;;;;;;;;4945601;29;20040;-82
2022/12/12 06:34:24;;;;;;;9.85;5.40;;;;;;;;;;4945338;29;20028;-83
2022/12/12 06:36:49;;;;;;;11.48;5.53;;;;;;;;;;4945269;29;20035;-81
2022/12/12 06:39:15;;;;;;;10.93;5.78;;;;;;;;;;4928767;29;20078;-83
2022/12/12 06:41:40;;;;;;;11.15;5.53;;;;;;;;;;4946641;29;20050;-83
2022/12/12 06:44:05;;;;;;;10.27;5.75;;;;;;;;;;4946668;29;20048;-83
2022/12/12 06:46:31;;;;;;;9.73;5.38;;;;;;;;;;4945981;29;20051;-83
2022/12/12 06:48:57;;;;;;;11.57;5.38;;;;;;;;;;4928842;29;20027;-83
2022/12/12 06:51:27;;;;;;;11.57;5.85;;;;;;;;;;4943647;29;20035;-82
2022/12/12 06:53:52;;;;;;;10.43;5.57;;;;;;;;;;4943597;29;20518;-83
2022/12/12 06:56:21;;;;;;;10.60;5.60;;;;;;;;;;4942989;29;20036;-81
2022/12/12 06:58:48;;;;;;;8.55;4.95;;;;;;;;;;4932623;29;20032;-82
2022/12/12 07:01:15;;;;;;;8.32;4.60;;;;;;;;;;4924537;29;20064;-83
2022/12/12 07:03:40;;;;;;;10.93;5.55;;;;;;;;;;4923674;29;20070;-81
2022/12/12 07:06:06;;;;;;;10.15;5.20;;;;;;;;;;4908751;29;20044;-82
2022/12/12 07:08:35;;;;;;;9.48;4.97;;;;;;;;;;4910036;29;20024;-83
2022/12/12 07:11:06;;;;;;;11.00;5.50;;;;;;;;;;4926569;29;20111;-82
2022/12/12 07:13:32;;;;;;;9.65;4.63;;;;;;;;;;4907045;29;20039;-83
2022/12/12 07:15:57;;;;;;;10.50;4.78;;;;;;;;;;4922600;29;20461;-83
2022/12/12 07:18:23;;;;;;;11.43;4.93;;;;;;;;;;4906636;29;20047;-82
2022/12/12 07:20:48;;;;;;;13.57;6.25;;;;;;;;;;4924424;29;20032;-81
2022/12/12 07:23:14;;;;;;;8.95;4.80;;;;;;;;;;4923347;29;20040;-83
2022/12/12 07:25:41;;;;;;;8.95;4.80;;;;;;;;;;4923549;29;20042;-83
2022/12/12 07:28:09;;;;;;;8.90;4.85;;;;;;;;;;4922151;29;20035;-81
2022/12/12 07:30:39;;;;;;;10.68;5.40;;;;;;;;;;4906801;29;20119;-83
2022/12/12 07:33:05;;;;;;;9.88;5.28;;;;;;;;;;4907464;29;20051;-83
2022/12/12 07:35:31;;;;;;;11.43;5.75;;;;;;;;;;4907433;29;20130;-83
2022/12/12 07:37:56;;;;;;;14.13;6.18;;;;;;;;;;4907463;29;20084;-83
2022/12/12 07:40:22;;;;;;;12.13;6.05;;;;;;;;;;4928090;29;20498;-82
2022/12/12 07:42:48;;;;;;;10.05;5.82;;;;;;;;;;4911321;29;20454;-82
2022/12/12 07:45:13;;;;;;;14.50;7.55;;;;;;;;;;4909631;29;20039;-82
2022/12/12 07:47:39;;;;;;;14.27;6.97;;;;;;;;;;4924131;29;20453;-82
2022/12/12 07:50:05;;;;;;;18.92;7.45;;;;;;;;;;4927690;29;20044;-83
2022/12/12 07:52:30;;;;;;;12.90;6.32;;;;;;;;;;4928134;29;20509;-82
2022/12/12 07:54:56;;;;;;;13.40;6.80;;;;;;;;;;4923468;29;20040;-82
2022/12/12 07:57:21;;;;;;;13.45;6.97;;;;;;;;;;4923132;29;20040;-81
2022/12/12 07:59:47;;;;;;;14.50;7.38;;;;;;;;;;4921823;29;20028;-82
2022/12/12 08:02:12;;;;;;;14.32;7.57;;;;;;;;;;4921258;29;20127;-82
2022/12/12 08:04:38;;;;;;;13.77;7.50;;;;;;;;;;4904462;29;20055;-82
2022/12/12 08:07:03;;;;;;;14.68;7.13;;;;;;;;;;4906015;29;20039;-83
2022/12/12 08:09:29;;;;;;;13.88;6.80;;;;;;;;;;4926184;29;20115;-81
2022/12/12 08:11:56;;;;;;;16.48;7.00;;;;;;;;;;4920799;29;20075;-80
2022/12/12 08:14:22;;;;;;;14.88;6.78;;;;;;;;;;4919855;29;20036;-81
2022/12/12 08:16:47;;;;;;;12.80;6.78;;;;;;;;;;4903528;29;20031;-81
2022/12/12 08:19:12;;;;;;;11.82;6.88;;;;;;;;;;4919095;29;20060;-81
2022/12/12 08:21:38;;;;;;;13.27;6.70;;;;;;;;;;4922105;29;20083;-82
2022/12/12 08:24:04;;;;;;;13.65;6.53;;;;;;;;;;4927077;29;20119;-83
2022/12/12 08:26:30;;;;;;;14.05;6.90;;;;;;;;;;4927853;29;20052;-82
2022/12/12 08:28:57;;;;;;;18.95;8.25;;;;;;;;;;4910145;29;20040;-84
2022/12/12 08:31:23;;;;;;;12.50;6.65;;;;;;;;;;4910562;29;20036;-84
2022/12/12 08:33:49;;;;;;;12.15;6.30;;;;;;;;;;4927443;29;20040;-83
2022/12/12 08:36:24;;;;;;;11.77;6.35;;;;;;;;;;5101349;28;20457;-83
2022/12/12 08:38:50;;;;;;;15.70;6.68;;;;;;;;;;5095374;28;20089;-85
2022/12/12 08:41:16;;;;;;;12.65;7.03;;;;;;;;;;5098027;28;20016;-85
2022/12/12 08:43:43;;;;;;;13.55;6.47;;;;;;;;;;5099356;28;20032;-85
2022/12/12 08:46:11;;;;;;;12.38;6.75;;;;;;;;;;5082913;28;20473;-83
2022/12/12 08:48:36;;;;;;;12.90;6.68;;;;;;;;;;5097841;28;20142;-83
2022/12/12 08:51:01;;;;;;;12.90;6.82;;;;;;;;;;5097915;28;20063;-83
2022/12/12 08:53:27;;;;;;;11.70;6.28;;;;;;;;;;5098576;28;20412;-83
2022/12/12 08:55:53;;;;;;;11.13;6.35;;;;;;;;;;5097411;28;20414;-82
2022/12/12 08:58:19;;;;;;;11.00;6.30;;;;;;;;;;5097793;28;20040;-83
2022/12/12 09:00:44;;;;;;;13.40;6.72;;;;;;;;;;5097347;28;20036;-82
2022/12/12 09:03:10;;;;;;;11.73;6.38;;;;;;;;;;5097258;28;20024;-81
2022/12/12 09:05:35;;;;;;;11.60;6.55;;;;;;;;;;5096163;28;20506;-82
2022/12/12 09:08:02;;;;;;;40.80;14.07;;;;;;;;;;5097609;28;20111;-82
2022/12/12 09:10:28;;;;;;;33.72;13.38;;;;;;;;;;5077316;28;20060;-83
2022/12/12 09:12:54;;;;;;;14.95;6.72;;;;;;;;;;5095167;28;20063;-81
2022/12/12 09:15:19;;;;;;;11.98;6.47;;;;;;;;;;5094451;28;20034;-83
2022/12/12 09:17:45;;;;;;;11.23;6.65;;;;;;;;;;5076862;28;20044;-84
2022/12/12 09:20:11;;;;;;;18.35;10.25;;;;;;;;;;5094481;28;20131;-82
2022/12/12 09:22:36;;;;;;;10.60;6.30;;;;;;;;;;5094074;28;20044;-81
2022/12/12 09:25:03;;;;;;;11.70;6.30;;;;;;;;;;5094289;28;20047;-81
2022/12/12 09:27:29;;;;;;;11.25;6.65;;;;;;;;;;5076335;28;20036;-82
2022/12/12 09:29:55;;;;;;;16.60;7.78;;;;;;;;;;5094196;28;20083;-82
2022/12/12 09:32:21;;;;;;;22.00;8.95;;;;;;;;;;5076514;28;20024;-81
2022/12/12 09:34:46;;;;;;;15.95;7.53;;;;;;;;;;5076440;28;20032;-82
2022/12/12 09:37:12;;;;;;;14.95;7.47;;;;;;;;;;5094191;28;20050;-82
2022/12/12 09:39:38;;;;;;;10.00;5.43;;;;;;;;;;5094352;28;20463;-81
2022/12/12 09:42:22;;;;;;;13.32;7.95;;;;;;;;;;5095433;28;20047;-82
2022/12/12 09:44:49;;;;;;;18.80;9.77;;;;;;;;;;5095695;28;20028;-82
2022/12/12 09:47:20;;;;;;;12.88;5.90;;;;;;;;;;5084786;28;20036;-82
2022/12/12 09:49:53;;;;;;;12.35;6.45;;;;;;;;;;5063622;28;20034;-83
2022/12/12 09:52:33;;;;;;;10.10;6.13;;;;;;;;;;5080739;28;20120;-83
2022/12/12 09:55:17;;;;;;;12.63;6.35;;;;;;;;;;5080438;28;20024;-82
2022/12/12 09:58:07;;;;;;;13.20;7.30;;;;;;;;;;5080270;28;20131;-82
2022/12/12 10:00:39;;;;;;;11.05;6.13;;;;;;;;;;5062529;28;20024;-82
2022/12/12 10:03:18;;;;;;;11.80;6.13;;;;;;;;;;5079968;28;20051;-80
2022/12/12 10:05:48;;;;;;;14.63;6.57;;;;;;;;;;5080244;28;20036;-81
2022/12/12 10:08:23;;;;;;;12.80;6.88;;;;;;;;;;5062358;28;20093;-81
2022/12/12 10:10:55;;;;;;;12.98;6.90;;;;;;;;;;5063736;28;20040;-81
2022/12/12 10:13:26;;;;;;;12.05;6.05;;;;;;;;;;5064326;28;20096;-82
2022/12/12 10:15:58;;;;;;;11.68;6.30;;;;;;;;;;5080780;28;20035;-81
2022/12/12 10:18:29;;;;;;;12.45;6.43;;;;;;;;;;5082029;28;20366;-81
2022/12/12 10:20:58;;;;;;;13.00;5.95;;;;;;;;;;5082510;28;20055;-81
2022/12/12 10:23:36;;;;;;;10.77;5.60;;;;;;;;;;5081584;28;20131;-82
2022/12/12 10:26:12;;;;;;;10.02;5.65;;;;;;;;;;5081437;28;20512;-81
2022/12/12 10:28:37;;;;;;;11.05;6.10;;;;;;;;;;5047986;28;20047;-82
2022/12/12 10:31:31;;;;;;;10.40;5.82;;;;;;;;;;5081694;28;20037;-82
2022/12/12 10:33:56;;;;;;;12.07;5.63;;;;;;;;;;5082046;28;20039;-81
2022/12/12 10:36:57;;;;;;;13.30;6.07;;;;;;;;;;5081856;28;20037;-82
2022/12/12 10:39:25;;;;;;;11.48;5.50;;;;;;;;;;5080500;28;20145;-81
2022/12/12 10:42:13;;;;;;;9.50;5.90;;;;;;;;;;5082504;28;20044;-81
2022/12/12 10:44:50;;;;;;;12.45;6.47;;;;;;;;;;5081127;28;20089;-84
2022/12/12 10:47:16;;;;;;;10.93;5.80;;;;;;;;;;5081292;28;20033;-81
2022/12/12 10:49:41;;;;;;;14.20;7.60;;;;;;;;;;5080888;28;20047;-82
2022/12/12 10:52:18;;;;;;;10.07;5.97;;;;;;;;;;5062600;28;20044;-81
2022/12/12 10:54:51;;;;;;;10.25;6.38;;;;;;;;;;5063063;28;20035;-81
2022/12/12 10:57:25;;;;;;;10.80;6.07;;;;;;;;;;5063093;28;20107;-84
2022/12/12 10:59:57;;;;;;;11.27;5.95;;;;;;;;;;5061745;28;20063;-83
2022/12/12 11:02:42;;;;;;;12.00;5.47;;;;;;;;;;5062225;28;20040;-82
2022/12/12 11:05:20;;;;;;;11.95;6.38;;;;;;;;;;5041310;28;20025;-83
2022/12/12 11:07:56;;;;;;;9.75;6.03;;;;;;;;;;5058374;28;20028;-82
2022/12/12 11:10:26;;;;;;;10.70;6.05;;;;;;;;;;5058427;28;20029;-82
2022/12/12 11:12:59;;;;;;;11.20;5.70;;;;;;;;;;5058185;28;20029;-83
2022/12/12 11:15:38;;;;;;;11.77;5.70;;;;;;;;;;5075418;28;20067;-83
2022/12/12 11:18:05;;;;;;;8.98;4.95;;;;;;;;;;5076429;28;20520;-83
2022/12/12 11:20:30;;;;;;;8.20;5.13;;;;;;;;;;5058842;28;20047;-83
2022/12/12 11:22:56;;;;;;;9.10;5.32;;;;;;;;;;5076580;28;20024;-84
2022/12/12 11:25:31;;;;;;;10.43;5.85;;;;;;;;;;5078401;28;20029;-82
2022/12/12 11:28:00;;;;;;;9.02;5.65;;;;;;;;;;5077808;28;20504;-82
2022/12/12 11:30:42;;;;;;;12.00;5.40;;;;;;;;;;5059069;28;20040;-83
2022/12/12 11:33:18;;;;;;;12.48;6.35;;;;;;;;;;5076717;28;20028;-82
2022/12/12 11:35:44;;;;;;;14.50;7.10;;;;;;;;;;5058224;28;20122;-82
2022/12/12 11:38:17;;;;;;;15.00;7.38;;;;;;;;;;5076589;28;20111;-82
2022/12/12 11:40:44;;;;;;;19.20;8.25;;;;;;;;;;5076679;28;20040;-82
2022/12/12 11:43:13;;;;;;;20.90;7.53;;;;;;;;;;5077013;28;20040;-81
2022/12/12 11:45:38;;;;;;;19.83;8.73;;;;;;;;;;5075897;28;20085;-83
2022/12/12 11:48:31;;;;;;;15.70;7.80;;;;;;;;;;5076552;28;20028;-84
2022/12/12 11:50:56;;;;;;;14.77;6.50;;;;;;;;;;5060219;28;20048;-83
2022/12/12 11:53:22;;;;;;;12.95;6.55;;;;;;;;;;5077004;28;20058;-81
2022/12/12 11:56:03;;;;;;;11.80;5.35;;;;;;;;;;5076270;28;20253;-82
2022/12/12 11:59:06;;;;;;;9.88;5.97;;;;;;;;;;5076643;28;20102;-83
2022/12/12 12:01:47;;;;;;;14.45;7.28;;;;;;;;;;4975911;28;20074;-83
2022/12/12 12:04:42;;;;;;;9.77;5.55;;;;;;;;;;4974450;28;20042;-84
2022/12/12 12:07:40;;;;;;;12.75;7.07;;;;;;;;;;5039573;28;20516;-82
2022/12/12 12:10:09;;;;;;;11.93;5.88;;;;;;;;;;5064224;28;20048;-82
2022/12/12 12:12:46;;;;;;;13.60;6.30;;;;;;;;;;5080635;28;20078;-80
2022/12/12 12:15:24;;;;;;;11.75;6.40;;;;;;;;;;5079951;28;20123;-81
2022/12/12 12:18:13;;;;;;;16.35;7.00;;;;;;;;;;5080146;28;20044;-80
2022/12/12 12:20:57;;;;;;;9.48;5.20;;;;;;;;;;5079950;28;20108;-82
2022/12/12 12:23:31;;;;;;;11.80;6.20;;;;;;;;;;5079860;28;20033;-83
2022/12/12 12:26:38;;;;;;;18.58;8.82;;;;;;;;;;5079891;28;20033;-82
2022/12/12 12:29:36;;;;;;;12.88;7.25;;;;;;;;;;5049152;28;20044;-82
2022/12/12 12:32:38;;;;;;;12.88;6.32;;;;;;;;;;5062728;28;20483;-82
2022/12/12 12:35:26;;;;;;;8.30;4.50;;;;;;;;;;5062124;28;20029;-82
2022/12/12 12:38:03;;;;;;;10.75;4.85;;;;;;;;;;5080808;28;20036;-80
2022/12/12 12:40:47;;;;;;;6.20;2.70;;;;;;;;;;5062598;28;20040;-81
2022/12/12 12:43:46;;;;;;;10.38;4.70;;;;;;;;;;5062387;28;20028;-82
2022/12/12 12:46:30;;;;;;;7.82;3.88;;;;;;;;;;5073650;28;20051;-82
2022/12/12 12:49:08;;;;;;;8.60;4.70;;;;;;;;;;5080552;28;20036;-83
2022/12/12 12:51:40;;;;;;;8.93;4.45;;;;;;;;;;5062874;28;20029;-82
2022/12/12 12:54:14;;;;;;;11.88;5.20;;;;;;;;;;5080191;28;20043;-81
2022/12/12 12:56:50;;;;;;;7.05;3.90;;;;;;;;;;5059234;28;20113;-81
2022/12/12 12:59:19;;;;;;;5.68;2.85;;;;;;;;;;5075906;28;20119;-80
2022/12/12 13:01:49;;;;;;;7.22;3.25;;;;;;;;;;5063118;28;20043;-81
2022/12/12 13:04:25;;;;;;;5.43;3.00;;;;;;;;;;5062648;28;20060;-81
2022/12/12 13:06:57;;;;;;;4.57;2.63;;;;;;;;;;5045607;28;20115;-81
2022/12/12 13:09:41;;;;;;;4.55;2.83;;;;;;;;;;5062090;28;20033;-81
2022/12/12 13:12:23;;;;;;;8.30;4.07;;;;;;;;;;5080198;28;20389;-83
2022/12/12 13:14:57;;;;;;;8.23;3.80;;;;;;;;;;5079362;28;20083;-82
2022/12/12 13:17:40;;;;;;;10.00;3.67;;;;;;;;;;5061549;28;20044;-81
2022/12/12 13:20:13;;;;;;;7.82;4.30;;;;;;;;;;5080018;28;20622;-80
2022/12/12 13:22:51;;;;;;;6.43;3.38;;;;;;;;;;5082803;28;20052;-82
2022/12/12 13:25:24;;;;;;;8.23;4.07;;;;;;;;;;5084055;28;20035;-82
2022/12/12 13:27:53;;;;;;;8.60;3.95;;;;;;;;;;5084402;28;20086;-80
2022/12/12 13:30:26;;;;;;;6.43;2.70;;;;;;;;;;5085463;28;20043;-82
2022/12/12 13:33:04;;;;;;;;;;;;;;;;;;5047283;28;20037;-80
2022/12/12 13:35:49;;;;;;;3.72;2.33;;;;;;;;;;5061353;28;19919;-82
2022/12/12 13:38:28;;;;;;;5.57;2.63;;;;;;;;;;5061922;28;20040;-81
2022/12/12 13:41:12;;;;;;;5.07;3.00;;;;;;;;;;5083281;28;20036;-83
2022/12/12 13:43:37;;;;;;;7.15;4.05;;;;;;;;;;5065581;28;20040;-82
2022/12/12 13:46:33;;;;;;;9.13;4.90;;;;;;;;;;5047535;28;20032;-82
2022/12/12 13:49:04;;;;;;;7.97;4.63;;;;;;;;;;5080296;28;20048;-81
2022/12/12 13:51:40;;;;;;;7.30;4.18;;;;;;;;;;5064927;28;20029;-82
2022/12/12 13:54:05;;;;;;;6.82;4.40;;;;;;;;;;5082140;28;20425;-82
2022/12/12 13:56:56;;;;;;;5.55;3.33;;;;;;;;;;5082295;28;20580;-83
2022/12/12 13:59:22;;;;;;;6.88;3.05;;;;;;;;;;5081226;28;20048;-82
2022/12/12 14:01:58;;;;;;;8.60;4.38;;;;;;;;;;5064901;28;20067;-81
2022/12/12 14:04:36;;;;;;;19.50;8.15;;;;;;;;;;5064025;28;20573;-81
2022/12/12 14:07:20;;;;;;;16.33;6.80;;;;;;;;;;5083230;28;20067;-82
2022/12/12 14:09:49;;;;;;;11.80;5.03;;;;;;;;;;5064560;28;20036;-82
2022/12/12 14:12:19;;;;;;;10.60;5.50;;;;;;;;;;5082553;28;20064;-83
2022/12/12 14:14:57;;;;;;;22.67;9.63;;;;;;;;;;5064145;28;20036;-82
2022/12/12 14:17:25;;;;;;;34.55;14.98;;;;;;;;;;5083638;28;20028;-82
2022/12/12 14:19:53;;;;;;;24.42;10.73;;;;;;;;;;5082824;28;20066;-82
2022/12/12 14:22:47;;;;;;;23.95;11.23;;;;;;;;;;5084147;28;20040;-82
2022/12/12 14:25:12;;;;;;;16.20;7.40;;;;;;;;;;5048556;23;20053;-82
2022/12/12 14:27:50;;;;;;;17.23;7.50;;;;;;;;;;5036293;28;20552;-83
2022/12/12 14:30:24;;;;;;;14.68;7.40;;;;;;;;;;5036632;28;20467;-85
2022/12/12 14:33:17;;;;;;;13.52;7.47;;;;;;;;;;5018137;28;20509;-82
2022/12/12 14:35:53;;;;;;;22.52;9.05;;;;;;;;;;5035910;28;20025;-83
2022/12/12 14:38:41;;;;;;;22.90;8.75;;;;;;;;;;5018375;28;20037;-83
2022/12/12 14:41:14;;;;;;;15.52;7.05;;;;;;;;;;5035523;28;20474;-84
2022/12/12 14:43:47;;;;;;;19.70;9.48;;;;;;;;;;5034894;28;20056;-84
2022/12/12 14:46:17;;;;;;;17.77;7.47;;;;;;;;;;5041098;28;20067;-83
2022/12/12 14:48:43;;;;;;;18.85;8.93;;;;;;;;;;5040174;28;20033;-82
2022/12/12 14:51:16;;;;;;;20.85;8.95;;;;;;;;;;5018800;28;20104;-84
2022/12/12 14:53:50;;;;;;;17.52;7.63;;;;;;;;;;5035711;28;20079;-87
2022/12/12 14:56:27;;;;;;;15.02;7.15;;;;;;;;;;5035647;28;20450;-84
2022/12/12 14:58:52;;;;;;;14.25;6.80;;;;;;;;;;5038346;28;20042;-84
2022/12/12 15:01:28;;;;;;;14.85;7.28;;;;;;;;;;5021257;28;20090;-85
2022/12/12 15:03:56;;;;;;;17.98;8.75;;;;;;;;;;5003617;28;20086;-84
2022/12/12 15:06:27;;;;;;;14.98;7.10;;;;;;;;;;5044410;28;20045;-87
2022/12/12 15:08:55;;;;;;;13.60;6.93;;;;;;;;;;5021061;28;20095;-85
2022/12/12 15:11:29;;;;;;;13.40;7.13;;;;;;;;;;5038501;28;20029;-85
2022/12/12 15:14:00;;;;;;;12.50;6.93;;;;;;;;;;5038513;28;20033;-85
2022/12/12 15:16:28;;;;;;;12.23;6.55;;;;;;;;;;5038043;28;20060;-86
2022/12/12 15:18:56;;;;;;;12.30;6.28;;;;;;;;;;5037749;28;20047;-86
2022/12/12 15:21:22;;;;;;;12.65;5.72;;;;;;;;;;5020360;28;20037;-86